sensor_id;sensor_type;location;lat;lon;timestamp;pressure;altitude;pressure_sealevel;temperature;humidity
9893;BME280;4985;49.092;8.542;2023-04-07T00:02:28;99343.75;;;15.15;51.57
9893;BME280;4985;49.092;8.542;2023-04-07T00:04:54;99350.88;;;15.14;51.57
9893;BME280;4985;49.092;8.542;2023-04-07T00:07:22;99360.47;;;15.15;51.58
9893;BME280;4985;49.092;8.542;2023-04-07T00:09:49;99357.00;;;15.15;51.58
9893;BME280;4985;49.092;8.542;2023-04-07T00:12:17;99349.84;;;15.15;51.58
9893;BME280;4985;49.092;8.542;2023-04-07T00:14:43;99347.41;;;15.14;51.60
9893;BME280;4985;49.092;8.542;2023-04-07T00:17:10;99351.88;;;15.13;51.61
9893;BME280;4985;49.092;8.542;2023-04-07T00:19:36;99343.94;;;15.13;51.61
9893;BME280;4985;49.092;8.542;2023-04-07T00:22:03;99352.09;;;15.12;51.62
9893;BME280;4985;49.092;8.542;2023-04-07T00:24:29;99343.13;;;15.13;51.63
9893;BME280;4985;49.092;8.542;2023-04-07T00:26:56;99340.47;;;15.13;51.64
9893;BME280;4985;49.092;8.542;2023-04-07T00:29:24;99335.16;;;15.13;51.63
9893;BME280;4985;49.092;8.542;2023-04-07T00:31:50;99335.16;;;15.13;51.62
9893;BME280;4985;49.092;8.542;2023-04-07T00:34:17;99337.81;;;15.13;51.62
9893;BME280;4985;49.092;8.542;2023-04-07T00:36:44;99322.09;;;15.11;51.64
9893;BME280;4985;49.092;8.542;2023-04-07T00:39:16;99320.25;;;15.12;51.63
9893;BME280;4985;49.092;8.542;2023-04-07T00:41:43;99329.03;;;15.12;51.63
9893;BME280;4985;49.092;8.542;2023-04-07T00:44:10;99322.72;;;15.13;51.62
9893;BME280;4985;49.092;8.542;2023-04-07T00:46:37;99322.91;;;15.12;51.62
9893;BME280;4985;49.092;8.542;2023-04-07T00:49:04;99311.50;;;15.11;51.62
9893;BME280;4985;49.092;8.542;2023-04-07T00:51:31;99313.94;;;15.13;51.62
9893;BME280;4985;49.092;8.542;2023-04-07T00:53:58;99307.00;;;15.12;51.63
9893;BME280;4985;49.092;8.542;2023-04-07T00:56:26;99308.03;;;15.11;51.63
9893;BME280;4985;49.092;8.542;2023-04-07T00:58:52;99303.53;;;15.11;51.63
9893;BME280;4985;49.092;8.542;2023-04-07T01:01:22;99301.91;;;15.10;51.61
9893;BME280;4985;49.092;8.542;2023-04-07T01:03:56;99300.06;;;15.11;51.61
9893;BME280;4985;49.092;8.542;2023-04-07T01:06:25;99291.91;;;15.12;51.61
9893;BME280;4985;49.092;8.542;2023-04-07T01:08:59;99283.72;;;15.07;51.60
9893;BME280;4985;49.092;8.542;2023-04-07T01:11:32;99291.09;;;15.12;51.61
9893;BME280;4985;49.092;8.542;2023-04-07T01:14:00;99284.97;;;15.11;51.60
9893;BME280;4985;49.092;8.542;2023-04-07T01:16:30;99286.81;;;15.11;51.61
9893;BME280;4985;49.092;8.542;2023-04-07T01:19:02;99278.03;;;15.10;51.60
9893;BME280;4985;49.092;8.542;2023-04-07T01:21:32;99279.69;;;15.11;51.62
9893;BME280;4985;49.092;8.542;2023-04-07T01:24:14;99270.09;;;15.10;51.61
9893;BME280;4985;49.092;8.542;2023-04-07T01:26:46;99261.31;;;15.10;51.61
9893;BME280;4985;49.092;8.542;2023-04-07T01:29:31;99260.50;;;15.09;51.61
9893;BME280;4985;49.092;8.542;2023-04-07T01:32:00;99255.19;;;15.09;51.62
9893;BME280;4985;49.092;8.542;2023-04-07T01:34:30;99254.37;;;15.09;51.63
9893;BME280;4985;49.092;8.542;2023-04-07T01:37:00;99249.88;;;15.09;51.62
9893;BME280;4985;49.092;8.542;2023-04-07T01:39:27;99249.88;;;15.09;51.63
9893;BME280;4985;49.092;8.542;2023-04-07T01:41:55;99249.88;;;15.09;51.62
9893;BME280;4985;49.092;8.542;2023-04-07T01:44:24;99246.22;;;15.10;51.61
9893;BME280;4985;49.092;8.542;2023-04-07T01:46:53;99248.06;;;15.10;51.61
9893;BME280;4985;49.092;8.542;2023-04-07T01:49:21;99244.59;;;15.09;51.59
9893;BME280;4985;49.092;8.542;2023-04-07T01:51:48;99248.88;;;15.10;51.59
9893;BME280;4985;49.092;8.542;2023-04-07T01:54:16;99238.47;;;15.09;51.60
9893;BME280;4985;49.092;8.542;2023-04-07T01:56:43;99236.00;;;15.07;51.61
9893;BME280;4985;49.092;8.542;2023-04-07T01:59:11;99243.78;;;15.09;51.62
9893;BME280;4985;49.092;8.542;2023-04-07T02:01:37;99242.94;;;15.08;51.63
9893;BME280;4985;49.092;8.542;2023-04-07T02:04:10;99242.12;;;15.08;51.63
9893;BME280;4985;49.092;8.542;2023-04-07T02:06:42;99236.84;;;15.08;51.64
9893;BME280;4985;49.092;8.542;2023-04-07T02:09:14;99237.03;;;15.06;51.66
9893;BME280;4985;49.092;8.542;2023-04-07T02:11:42;99232.28;;;15.02;51.66
9893;BME280;4985;49.092;8.542;2023-04-07T02:14:11;99232.53;;;15.07;51.66
9893;BME280;4985;49.092;8.542;2023-04-07T02:16:40;99231.72;;;15.06;51.67
9893;BME280;4985;49.092;8.542;2023-04-07T02:19:09;99229.06;;;15.06;51.66
9893;BME280;4985;49.092;8.542;2023-04-07T02:21:36;99227.25;;;15.07;51.66
9893;BME280;4985;49.092;8.542;2023-04-07T02:24:05;99222.94;;;15.06;51.66
9893;BME280;4985;49.092;8.542;2023-04-07T02:26:33;99225.41;;;15.07;51.65
9893;BME280;4985;49.092;8.542;2023-04-07T02:29:00;99222.75;;;15.07;51.65
9893;BME280;4985;49.092;8.542;2023-04-07T02:31:27;99220.09;;;15.07;51.65
9893;BME280;4985;49.092;8.542;2023-04-07T02:33:53;99224.59;;;15.07;51.64
9893;BME280;4985;49.092;8.542;2023-04-07T02:36:21;99219.28;;;15.07;51.63
9893;BME280;4985;49.092;8.542;2023-04-07T02:38:48;99221.13;;;15.06;51.63
9893;BME280;4985;49.092;8.542;2023-04-07T02:41:14;99219.28;;;15.07;51.63
9893;BME280;4985;49.092;8.542;2023-04-07T02:43:41;99217.63;;;15.06;51.64
9893;BME280;4985;49.092;8.542;2023-04-07T02:46:07;99212.31;;;15.06;51.64
9893;BME280;4985;49.092;8.542;2023-04-07T02:48:34;99206.19;;;15.05;51.64
9893;BME280;4985;49.092;8.542;2023-04-07T02:51:00;99209.50;;;15.07;51.63
9893;BME280;4985;49.092;8.542;2023-04-07T02:53:28;99210.53;;;15.06;51.64
9893;BME280;4985;49.092;8.542;2023-04-07T02:55:55;99207.87;;;15.06;51.64
9893;BME280;4985;49.092;8.542;2023-04-07T02:58:22;99205.22;;;15.06;51.65
9893;BME280;4985;49.092;8.542;2023-04-07T03:00:48;99207.03;;;15.06;51.64
9893;BME280;4985;49.092;8.542;2023-04-07T03:03:15;99200.91;;;15.05;51.64
9893;BME280;4985;49.092;8.542;2023-04-07T03:05:41;99201.72;;;15.06;51.63
9893;BME280;4985;49.092;8.542;2023-04-07T03:08:08;99194.63;;;15.06;51.63
9893;BME280;4985;49.092;8.542;2023-04-07T03:10:36;99196.41;;;15.06;51.62
9893;BME280;4985;49.092;8.542;2023-04-07T03:13:02;99195.59;;;15.05;51.63
9893;BME280;4985;49.092;8.542;2023-04-07T03:15:29;99199.91;;;15.06;51.61
9893;BME280;4985;49.092;8.542;2023-04-07T03:17:55;99191.97;;;15.06;51.62
9893;BME280;4985;49.092;8.542;2023-04-07T03:20:22;99184.19;;;15.05;51.62
9893;BME280;4985;49.092;8.542;2023-04-07T03:22:49;99191.31;;;15.04;51.63
9893;BME280;4985;49.092;8.542;2023-04-07T03:25:15;99185.37;;;15.02;51.64
9893;BME280;4985;49.092;8.542;2023-04-07T03:27:43;99181.09;;;15.01;51.65
9893;BME280;4985;49.092;8.542;2023-04-07T03:30:10;99185.37;;;15.02;51.67
9893;BME280;4985;49.092;8.542;2023-04-07T03:32:37;99175.81;;;15.01;51.68
9893;BME280;4985;49.092;8.542;2023-04-07T03:35:04;99176.63;;;15.02;51.68
9893;BME280;4985;49.092;8.542;2023-04-07T03:37:31;99174.78;;;15.02;51.68
9893;BME280;4985;49.092;8.542;2023-04-07T03:39:57;99182.94;;;15.01;51.69
9893;BME280;4985;49.092;8.542;2023-04-07T03:42:24;99179.47;;;15.00;51.69
9893;BME280;4985;49.092;8.542;2023-04-07T03:44:52;99170.50;;;15.01;51.69
9893;BME280;4985;49.092;8.542;2023-04-07T03:47:18;99172.34;;;15.01;51.69
9893;BME280;4985;49.092;8.542;2023-04-07T03:49:45;99171.50;;;15.00;51.69
9893;BME280;4985;49.092;8.542;2023-04-07T03:52:12;99176.81;;;15.00;51.70
9893;BME280;4985;49.092;8.542;2023-04-07T03:54:39;99176.81;;;15.00;51.69
9893;BME280;4985;49.092;8.542;2023-04-07T03:57:06;99171.50;;;15.00;51.69
9893;BME280;4985;49.092;8.542;2023-04-07T03:59:34;99173.34;;;15.00;51.69
9893;BME280;4985;49.092;8.542;2023-04-07T04:02:02;99175.56;;;14.96;51.69
9893;BME280;4985;49.092;8.542;2023-04-07T04:04:29;99172.53;;;14.99;51.71
9893;BME280;4985;49.092;8.542;2023-04-07T04:06:55;99178.66;;;15.00;51.71
9893;BME280;4985;49.092;8.542;2023-04-07T04:09:22;99173.34;;;15.00;51.70
9893;BME280;4985;49.092;8.542;2023-04-07T04:11:49;99164.59;;;14.99;51.72
9893;BME280;4985;49.092;8.542;2023-04-07T04:14:15;99158.47;;;14.99;51.71
9893;BME280;4985;49.092;8.542;2023-04-07T04:16:42;99171.72;;;14.99;51.71
9893;BME280;4985;49.092;8.542;2023-04-07T04:19:10;99169.06;;;14.99;51.72
9893;BME280;4985;49.092;8.542;2023-04-07T04:21:36;99174.38;;;14.99;51.72
9893;BME280;4985;49.092;8.542;2023-04-07T04:24:03;99179.66;;;14.99;51.70
9893;BME280;4985;49.092;8.542;2023-04-07T04:26:30;99184.78;;;15.00;51.69
9893;BME280;4985;49.092;8.542;2023-04-07T04:28:56;99179.47;;;15.00;51.69
9893;BME280;4985;49.092;8.542;2023-04-07T04:31:23;99183.13;;;14.99;51.71
9893;BME280;4985;49.092;8.542;2023-04-07T04:33:49;99178.84;;;14.98;51.70
9893;BME280;4985;49.092;8.542;2023-04-07T04:36:18;99178.84;;;14.98;51.72
9893;BME280;4985;49.092;8.542;2023-04-07T04:38:44;99176.41;;;14.97;51.72
9893;BME280;4985;49.092;8.542;2023-04-07T04:41:11;99178.84;;;14.98;51.72
9893;BME280;4985;49.092;8.542;2023-04-07T04:43:37;99183.34;;;14.98;51.72
9893;BME280;4985;49.092;8.542;2023-04-07T04:46:04;99179.88;;;14.97;51.72
9893;BME280;4985;49.092;8.542;2023-04-07T04:48:31;99176.19;;;14.98;51.72
9893;BME280;4985;49.092;8.542;2023-04-07T04:50:57;99175.38;;;14.98;51.72
9893;BME280;4985;49.092;8.542;2023-04-07T04:53:25;99164.97;;;14.96;51.72
9893;BME280;4985;49.092;8.542;2023-04-07T04:55:52;99170.28;;;14.96;51.72
9893;BME280;4985;49.092;8.542;2023-04-07T04:58:19;99176.41;;;14.97;51.72
9893;BME280;4985;49.092;8.542;2023-04-07T05:00:46;99177.22;;;14.97;51.73
9893;BME280;4985;49.092;8.542;2023-04-07T05:03:12;99178.41;;;14.95;51.72
9893;BME280;4985;49.092;8.542;2023-04-07T05:05:39;99183.69;;;14.95;51.72
9893;BME280;4985;49.092;8.542;2023-04-07T05:08:05;99181.91;;;14.95;51.73
9893;BME280;4985;49.092;8.542;2023-04-07T05:10:37;99178.41;;;14.95;51.74
9893;BME280;4985;49.092;8.542;2023-04-07T05:13:03;99178.41;;;14.95;51.73
9893;BME280;4985;49.092;8.542;2023-04-07T05:15:30;99182.88;;;14.94;51.73
9893;BME280;4985;49.092;8.542;2023-04-07T05:17:56;99187.19;;;14.95;51.74
9893;BME280;4985;49.092;8.542;2023-04-07T05:20:23;99184.53;;;14.95;51.73
9893;BME280;4985;49.092;8.542;2023-04-07T05:22:49;99184.53;;;14.95;51.72
9893;BME280;4985;49.092;8.542;2023-04-07T05:25:16;99187.38;;;14.94;51.72
9893;BME280;4985;49.092;8.542;2023-04-07T05:27:44;99183.69;;;14.95;51.74
9893;BME280;4985;49.092;8.542;2023-04-07T05:30:11;99179.25;;;14.95;51.72
9893;BME280;4985;49.092;8.542;2023-04-07T05:32:38;99180.22;;;14.94;51.73
9893;BME280;4985;49.092;8.542;2023-04-07T05:35:05;99182.88;;;14.94;51.72
9893;BME280;4985;49.092;8.542;2023-04-07T05:37:32;99189.00;;;14.95;51.72
9893;BME280;4985;49.092;8.542;2023-04-07T05:39:58;99184.72;;;14.94;51.73
9893;BME280;4985;49.092;8.542;2023-04-07T05:42:25;99192.66;;;14.94;51.74
9893;BME280;4985;49.092;8.542;2023-04-07T05:44:53;99191.84;;;14.93;51.75
9893;BME280;4985;49.092;8.542;2023-04-07T05:47:20;99191.84;;;14.93;51.75
9893;BME280;4985;49.092;8.542;2023-04-07T05:49:46;99193.69;;;14.93;51.76
9893;BME280;4985;49.092;8.542;2023-04-07T05:52:13;99200.81;;;14.92;51.76
9893;BME280;4985;49.092;8.542;2023-04-07T05:54:40;99198.16;;;14.92;51.78
9893;BME280;4985;49.092;8.542;2023-04-07T05:57:06;99198.16;;;14.92;51.78
9893;BME280;4985;49.092;8.542;2023-04-07T05:59:33;99199.81;;;14.93;51.78
9893;BME280;4985;49.092;8.542;2023-04-07T06:02:02;99193.87;;;14.91;51.77
9893;BME280;4985;49.092;8.542;2023-04-07T06:04:28;99200.81;;;14.92;51.77
9893;BME280;4985;49.092;8.542;2023-04-07T06:06:55;99206.13;;;14.92;51.78
9893;BME280;4985;49.092;8.542;2023-04-07T06:09:22;99197.34;;;14.92;51.79
9893;BME280;4985;49.092;8.542;2023-04-07T06:11:49;99207.75;;;14.93;51.79
9893;BME280;4985;49.092;8.542;2023-04-07T06:14:16;99207.75;;;14.93;51.77
9893;BME280;4985;49.092;8.542;2023-04-07T06:16:42;99207.75;;;14.93;51.75
9893;BME280;4985;49.092;8.542;2023-04-07T06:19:11;99197.75;;;14.89;51.74
9893;BME280;4985;49.092;8.542;2023-04-07T06:21:37;99207.75;;;14.93;51.75
9893;BME280;4985;49.092;8.542;2023-04-07T06:24:05;99199.81;;;14.93;51.76
9893;BME280;4985;49.092;8.542;2023-04-07T06:26:32;99198.78;;;14.94;51.73
9893;BME280;4985;49.092;8.542;2023-04-07T06:28:58;99197.97;;;14.94;51.74
9893;BME280;4985;49.092;8.542;2023-04-07T06:31:25;99194.50;;;14.93;51.75
9893;BME280;4985;49.092;8.542;2023-04-07T06:33:52;99196.31;;;14.93;51.74
9893;BME280;4985;49.092;8.542;2023-04-07T06:36:20;99201.63;;;14.93;51.75
9893;BME280;4985;49.092;8.542;2023-04-07T06:38:47;99200.63;;;14.94;51.74
9893;BME280;4985;49.092;8.542;2023-04-07T06:41:14;99191.03;;;14.93;51.75
9893;BME280;4985;49.092;8.542;2023-04-07T06:43:42;99189.19;;;14.93;51.75
9893;BME280;4985;49.092;8.542;2023-04-07T06:46:08;99197.97;;;14.94;51.73
9893;BME280;4985;49.092;8.542;2023-04-07T06:48:35;99196.31;;;14.93;51.75
9893;BME280;4985;49.092;8.542;2023-04-07T06:51:02;99201.63;;;14.93;51.76
9893;BME280;4985;49.092;8.542;2023-04-07T06:53:31;99199.81;;;14.93;51.78
9893;BME280;4985;49.092;8.542;2023-04-07T06:56:04;99198.97;;;14.93;51.78
9893;BME280;4985;49.092;8.542;2023-04-07T06:58:31;99196.31;;;14.93;51.80
9893;BME280;4985;49.092;8.542;2023-04-07T07:00:58;99194.50;;;14.93;51.80
9893;BME280;4985;49.092;8.542;2023-04-07T07:03:25;99190.22;;;14.92;51.80
9893;BME280;4985;49.092;8.542;2023-04-07T07:05:53;99189.19;;;14.93;51.79
9893;BME280;4985;49.092;8.542;2023-04-07T07:08:20;99197.16;;;14.93;51.80
9893;BME280;4985;49.092;8.542;2023-04-07T07:10:48;99203.25;;;14.94;51.81
9893;BME280;4985;49.092;8.542;2023-04-07T07:13:15;99194.50;;;14.93;51.81
9893;BME280;4985;49.092;8.542;2023-04-07T07:15:42;99197.16;;;14.93;51.81
9893;BME280;4985;49.092;8.542;2023-04-07T07:18:08;99194.50;;;14.93;51.79
9893;BME280;4985;49.092;8.542;2023-04-07T07:20:35;99191.84;;;14.93;51.80
9893;BME280;4985;49.092;8.542;2023-04-07T07:23:01;99190.22;;;14.92;51.81
9893;BME280;4985;49.092;8.542;2023-04-07T07:25:28;99191.03;;;14.93;51.81
9893;BME280;4985;49.092;8.542;2023-04-07T07:27:56;99196.31;;;14.93;51.83
9893;BME280;4985;49.092;8.542;2023-04-07T07:30:23;99198.16;;;14.92;51.84
9893;BME280;4985;49.092;8.542;2023-04-07T07:32:50;99194.69;;;14.92;51.84
9893;BME280;4985;49.092;8.542;2023-04-07T07:35:18;99190.22;;;14.92;51.84
9893;BME280;4985;49.092;8.542;2023-04-07T07:37:45;99197.34;;;14.92;51.85
9893;BME280;4985;49.092;8.542;2023-04-07T07:40:12;99193.87;;;14.91;51.85
9893;BME280;4985;49.092;8.542;2023-04-07T07:42:38;99195.72;;;14.91;51.87
9893;BME280;4985;49.092;8.542;2023-04-07T07:45:07;99189.59;;;14.90;51.90
9893;BME280;4985;49.092;8.542;2023-04-07T07:47:34;99191.41;;;14.90;51.92
9893;BME280;4985;49.092;8.542;2023-04-07T07:50:02;99197.53;;;14.90;51.93
9893;BME280;4985;49.092;8.542;2023-04-07T07:52:28;99190.59;;;14.89;51.95
9893;BME280;4985;49.092;8.542;2023-04-07T07:54:55;99196.72;;;14.90;51.97
9893;BME280;4985;49.092;8.542;2023-04-07T07:57:22;99196.72;;;14.90;51.98
9893;BME280;4985;49.092;8.542;2023-04-07T07:59:48;99195.91;;;14.89;51.99
9893;BME280;4985;49.092;8.542;2023-04-07T08:02:16;99195.91;;;14.89;52.01
9893;BME280;4985;49.092;8.542;2023-04-07T08:04:43;99201.22;;;14.89;52.03
9893;BME280;4985;49.092;8.542;2023-04-07T08:07:10;99206.50;;;14.89;52.05
9893;BME280;4985;49.092;8.542;2023-04-07T08:09:36;99198.75;;;14.88;52.07
9893;BME280;4985;49.092;8.542;2023-04-07T08:12:03;99187.34;;;14.87;52.09
9893;BME280;4985;49.092;8.542;2023-04-07T08:14:30;99190.00;;;14.87;52.10
9893;BME280;4985;49.092;8.542;2023-04-07T08:16:56;99200.37;;;14.89;52.09
9893;BME280;4985;49.092;8.542;2023-04-07T08:19:24;99201.41;;;14.88;52.11
9893;BME280;4985;49.092;8.542;2023-04-07T08:21:52;99194.22;;;14.81;52.13
9893;BME280;4985;49.092;8.542;2023-04-07T08:24:19;99198.94;;;14.86;52.15
9893;BME280;4985;49.092;8.542;2023-04-07T08:26:45;99195.28;;;14.87;52.15
9893;BME280;4985;49.092;8.542;2023-04-07T08:29:12;99194.28;;;14.88;52.13
9893;BME280;4985;49.092;8.542;2023-04-07T08:31:39;99206.72;;;14.88;52.15
9893;BME280;4985;49.092;8.542;2023-04-07T08:34:05;99209.34;;;14.88;52.16
9893;BME280;4985;49.092;8.542;2023-04-07T08:36:33;99198.75;;;14.88;52.15
9893;BME280;4985;49.092;8.542;2023-04-07T08:39:00;99194.28;;;14.88;52.17
9893;BME280;4985;49.092;8.542;2023-04-07T08:41:32;99215.47;;;14.88;52.16
9893;BME280;4985;49.092;8.542;2023-04-07T08:44:00;99201.22;;;14.89;52.14
9893;BME280;4985;49.092;8.542;2023-04-07T08:46:27;99214.47;;;14.89;52.16
9893;BME280;4985;49.092;8.542;2023-04-07T08:48:55;99211.81;;;14.89;52.18
9893;BME280;4985;49.092;8.542;2023-04-07T08:51:26;99220.78;;;14.88;52.19
9893;BME280;4985;49.092;8.542;2023-04-07T08:53:59;99216.09;;;14.90;52.21
9893;BME280;4985;49.092;8.542;2023-04-07T08:56:31;99211.81;;;14.89;52.21
9893;BME280;4985;49.092;8.542;2023-04-07T08:58:59;99214.47;;;14.89;52.22
9893;BME280;4985;49.092;8.542;2023-04-07T09:01:26;99221.19;;;14.92;52.22
9893;BME280;4985;49.092;8.542;2023-04-07T09:03:53;99215.91;;;14.92;52.22
9893;BME280;4985;49.092;8.542;2023-04-07T09:06:22;99208.97;;;14.91;52.21
9893;BME280;4985;49.092;8.542;2023-04-07T09:08:48;99222.00;;;14.92;52.23
9893;BME280;4985;49.092;8.542;2023-04-07T09:11:16;99215.06;;;14.91;52.22
9893;BME280;4985;49.092;8.542;2023-04-07T09:13:43;99218.75;;;14.90;52.24
9893;BME280;4985;49.092;8.542;2023-04-07T09:16:10;99218.75;;;14.90;52.27
9893;BME280;4985;49.092;8.542;2023-04-07T09:18:38;99215.28;;;14.90;52.29
9893;BME280;4985;49.092;8.542;2023-04-07T09:21:05;99219.56;;;14.91;52.29
9893;BME280;4985;49.092;8.542;2023-04-07T09:23:33;99215.28;;;14.90;52.30
9893;BME280;4985;49.092;8.542;2023-04-07T09:26:19;99220.38;;;14.91;52.31
9893;BME280;4985;49.092;8.542;2023-04-07T09:28:48;99217.72;;;14.91;52.30
9893;BME280;4985;49.092;8.542;2023-04-07T09:31:15;99214.66;;;14.88;52.31
9893;BME280;4985;49.092;8.542;2023-04-07T09:33:42;99220.38;;;14.91;52.32
9893;BME280;4985;49.092;8.542;2023-04-07T09:36:08;99222.00;;;14.92;52.33
9893;BME280;4985;49.092;8.542;2023-04-07T09:38:38;99222.00;;;14.92;52.34
9893;BME280;4985;49.092;8.542;2023-04-07T09:41:06;99217.53;;;14.93;52.35
9893;BME280;4985;49.092;8.542;2023-04-07T09:43:36;99219.38;;;14.92;52.36
9893;BME280;4985;49.092;8.542;2023-04-07T09:46:11;99222.00;;;14.92;52.38
9893;BME280;4985;49.092;8.542;2023-04-07T09:48:38;99216.72;;;14.92;52.40
9893;BME280;4985;49.092;8.542;2023-04-07T09:51:06;99222.84;;;14.93;52.40
9893;BME280;4985;49.092;8.542;2023-04-07T09:53:45;99218.34;;;14.93;52.41
9893;BME280;4985;49.092;8.542;2023-04-07T09:56:13;99223.66;;;14.93;52.39
9893;BME280;4985;49.092;8.542;2023-04-07T09:58:43;99220.81;;;14.95;52.40
9893;BME280;4985;49.092;8.542;2023-04-07T10:01:11;99223.28;;;14.96;52.40
9893;BME280;4985;49.092;8.542;2023-04-07T10:03:38;99226.75;;;14.97;52.38
9893;BME280;4985;49.092;8.542;2023-04-07T10:06:06;99222.28;;;14.97;52.37
9893;BME280;4985;49.092;8.542;2023-04-07T10:08:34;99220.62;;;14.96;52.39
9893;BME280;4985;49.092;8.542;2023-04-07T10:11:01;99225.75;;;14.98;52.40
9893;BME280;4985;49.092;8.542;2023-04-07T10:13:28;99227.38;;;14.99;52.40
9893;BME280;4985;49.092;8.542;2023-04-07T10:15:57;99233.50;;;14.99;52.41
9893;BME280;4985;49.092;8.542;2023-04-07T10:18:28;99232.69;;;14.99;52.43
9893;BME280;4985;49.092;8.542;2023-04-07T10:20:56;99234.31;;;15.00;52.42
9893;BME280;4985;49.092;8.542;2023-04-07T10:23:33;99225.56;;;14.99;52.44
9893;BME280;4985;49.092;8.542;2023-04-07T10:26:04;99226.16;;;15.01;52.44
9893;BME280;4985;49.092;8.542;2023-04-07T10:28:32;99228.63;;;15.03;52.43
9893;BME280;4985;49.092;8.542;2023-04-07T10:31:05;99225.78;;;15.04;52.41
9893;BME280;4985;49.092;8.542;2023-04-07T10:33:46;99226.59;;;15.05;52.40
9893;BME280;4985;49.092;8.542;2023-04-07T10:36:13;99224.75;;;15.05;52.38
9893;BME280;4985;49.092;8.542;2023-04-07T10:38:39;99229.06;;;15.06;52.39
9893;BME280;4985;49.092;8.542;2023-04-07T10:41:32;99229.06;;;15.06;52.37
9893;BME280;4985;49.092;8.542;2023-04-07T10:43:59;99229.91;;;15.07;52.36
9893;BME280;4985;49.092;8.542;2023-04-07T10:47:01;99228.06;;;15.07;52.36
9893;BME280;4985;49.092;8.542;2023-04-07T10:49:28;99226.44;;;15.06;52.38
9893;BME280;4985;49.092;8.542;2023-04-07T10:52:23;99235.19;;;15.07;52.38
9893;BME280;4985;49.092;8.542;2023-04-07T10:58:18;99233.38;;;15.07;52.37
9893;BME280;4985;49.092;8.542;2023-04-07T11:03:59;99237.66;;;15.08;52.39
9893;BME280;4985;49.092;8.542;2023-04-07T11:06:26;99226.59;;;15.05;52.38
9893;BME280;4985;49.092;8.542;2023-04-07T11:08:53;99230.50;;;15.09;52.39
9893;BME280;4985;49.092;8.542;2023-04-07T11:11:35;99235.62;;;15.10;52.39
9893;BME280;4985;49.092;8.542;2023-04-07T11:14:03;99227.88;;;15.09;52.40
9893;BME280;4985;49.092;8.542;2023-04-07T11:16:40;99218.63;;;15.05;52.40
9893;BME280;4985;49.092;8.542;2023-04-07T11:19:08;99230.31;;;15.10;52.40
9893;BME280;4985;49.092;8.542;2023-04-07T11:21:35;99226.66;;;15.11;52.39
9893;BME280;4985;49.092;8.542;2023-04-07T11:24:02;99231.75;;;15.13;52.36
9893;BME280;4985;49.092;8.542;2023-04-07T11:26:29;99229.72;;;15.15;52.36
9893;BME280;4985;49.092;8.542;2023-04-07T11:28:55;99230.53;;;15.15;52.35
9893;BME280;4985;49.092;8.542;2023-04-07T11:31:24;99231.19;;;15.18;52.31
9893;BME280;4985;49.092;8.542;2023-04-07T11:33:52;99230.19;;;15.19;52.29
9893;BME280;4985;49.092;8.542;2023-04-07T11:36:28;99217.47;;;15.14;52.29
9893;BME280;4985;49.092;8.542;2023-04-07T11:38:55;99232.00;;;15.18;52.31
9893;BME280;4985;49.092;8.542;2023-04-07T11:41:24;99232.19;;;15.17;52.32
9893;BME280;4985;49.092;8.542;2023-04-07T11:44:03;99237.69;;;15.15;52.35
9893;BME280;4985;49.092;8.542;2023-04-07T11:46:30;99238.50;;;15.15;52.36
9893;BME280;4985;49.092;8.542;2023-04-07T11:49:08;99240.13;;;15.17;52.37
9893;BME280;4985;49.092;8.542;2023-04-07T11:51:36;99238.13;;;15.19;52.37
9893;BME280;4985;49.092;8.542;2023-04-07T11:54:03;99238.13;;;15.19;52.38
9893;BME280;4985;49.092;8.542;2023-04-07T11:56:40;99239.97;;;15.18;52.39
9893;BME280;4985;49.092;8.542;2023-04-07T11:59:07;99246.09;;;15.19;52.42
9893;BME280;4985;49.092;8.542;2023-04-07T12:01:40;99245.06;;;15.20;52.42
9893;BME280;4985;49.092;8.542;2023-04-07T12:04:11;99245.87;;;15.20;52.42
9893;BME280;4985;49.092;8.542;2023-04-07T12:06:39;99244.06;;;15.21;52.43
9893;BME280;4985;49.092;8.542;2023-04-07T12:09:07;99241.41;;;15.21;52.45
9893;BME280;4985;49.092;8.542;2023-04-07T12:11:34;99244.88;;;15.21;52.46
9893;BME280;4985;49.092;8.542;2023-04-07T12:14:01;99241.22;;;15.22;52.47
9893;BME280;4985;49.092;8.542;2023-04-07T12:16:29;99236.91;;;15.21;52.47
9893;BME280;4985;49.092;8.542;2023-04-07T12:18:56;99241.00;;;15.24;52.48
9893;BME280;4985;49.092;8.542;2023-04-07T12:21:22;99241.81;;;15.24;52.49
9893;BME280;4985;49.092;8.542;2023-04-07T12:23:51;99243.66;;;15.24;52.50
9893;BME280;4985;49.092;8.542;2023-04-07T12:26:17;99247.94;;;15.25;52.50
9893;BME280;4985;49.092;8.542;2023-04-07T12:28:44;99251.41;;;15.25;52.52
9893;BME280;4985;49.092;8.542;2023-04-07T12:31:10;99262.66;;;15.27;52.51
9893;BME280;4985;49.092;8.542;2023-04-07T12:33:37;99262.44;;;15.29;52.49
9893;BME280;4985;49.092;8.542;2023-04-07T12:36:04;99256.97;;;15.30;52.46
9893;BME280;4985;49.092;8.542;2023-04-07T12:38:31;99264.53;;;15.33;52.40
9893;BME280;4985;49.092;8.542;2023-04-07T12:40:59;99256.38;;;15.35;52.36
9893;BME280;4985;49.092;8.542;2023-04-07T12:43:27;99264.97;;;15.37;52.34
9893;BME280;4985;49.092;8.542;2023-04-07T12:45:54;99265.56;;;15.39;52.31
9893;BME280;4985;49.092;8.542;2023-04-07T12:48:21;99271.69;;;15.39;52.29
9893;BME280;4985;49.092;8.542;2023-04-07T12:50:49;99258.28;;;15.41;52.25
9893;BME280;4985;49.092;8.542;2023-04-07T12:53:16;99271.34;;;15.42;52.25
9893;BME280;4985;49.092;8.542;2023-04-07T12:55:42;99269.50;;;15.43;52.25
9893;BME280;4985;49.092;8.542;2023-04-07T12:58:10;99270.94;;;15.46;52.23
9893;BME280;4985;49.092;8.542;2023-04-07T13:00:37;99270.94;;;15.46;52.24
9893;BME280;4985;49.092;8.542;2023-04-07T13:03:04;99277.87;;;15.47;52.25
9893;BME280;4985;49.092;8.542;2023-04-07T13:05:31;99272.16;;;15.50;52.24
9893;BME280;4985;49.092;8.542;2023-04-07T13:07:58;99269.31;;;15.51;52.19
9893;BME280;4985;49.092;8.542;2023-04-07T13:10:25;99285.06;;;15.53;52.16
9893;BME280;4985;49.092;8.542;2023-04-07T13:12:51;99285.06;;;15.53;52.14
9893;BME280;4985;49.092;8.542;2023-04-07T13:15:19;99283.22;;;15.53;52.14
9893;BME280;4985;49.092;8.542;2023-04-07T13:17:46;99277.53;;;15.56;52.13
9893;BME280;4985;49.092;8.542;2023-04-07T13:20:13;99274.06;;;15.56;52.11
9893;BME280;4985;49.092;8.542;2023-04-07T13:22:39;99278.56;;;15.55;52.13
9893;BME280;4985;49.092;8.542;2023-04-07T13:25:07;99278.56;;;15.55;52.17
9893;BME280;4985;49.092;8.542;2023-04-07T13:27:33;99275.06;;;15.55;52.20
9893;BME280;4985;49.092;8.542;2023-04-07T13:30:00;99272.22;;;15.56;52.19
9893;BME280;4985;49.092;8.542;2023-04-07T13:32:28;99275.50;;;15.58;52.16
9893;BME280;4985;49.092;8.542;2023-04-07T13:34:54;99263.88;;;15.59;52.16